Bookmark and Share
Track history (hours):
 

Nyk Constellation

Last reported at 2014-Apr-11 16:12 UTC. Time now 2014-Apr-18 08:15 UTC.
Position N 32°08' E 125°54'.

Length 294 m; draft 11.8 m.

Type: Cargo ship. MMSI: 538002992.

NotesDate/timePositionNaut miles runAvg speedWind from/ knotsBaromVisibWave heightAir tempDewpointWater temp
2014-Apr-11 16:12N 32°08' E 125°54'15317.5
2014-Apr-11 07:27N 30°45' E 123°23'1616.7
2014-Apr-11 06:29N 30°39' E 123°06'1617.4
2014-Apr-11 05:33N 30°33' E 122°48'2017.8
2014-Apr-11 04:26N 30°31' E 122°26'1214.0
2014-Apr-11 03:33N 30°33' E 122°11'9 8.4
2014-Apr-11 02:32N 30°38' E 122°03'0 0.1
2014-Apr-11 01:33N 30°38' E 122°03'0 0.0
2014-Apr-11 00:32N 30°38' E 122°03'0 0.0
2014-Apr-10 23:33N 30°38' E 122°03'0 0.0
2014-Apr-10 22:33N 30°38' E 122°03'0 0.0
2014-Apr-10 21:33N 30°38' E 122°03'0 0.0
2014-Apr-10 20:34N 30°38' E 122°03'0 0.0
2014-Apr-10 19:31N 30°38' E 122°03'0 0.0
2014-Apr-10 18:33N 30°38' E 122°03'0 0.0
2014-Apr-10 17:34N 30°38' E 122°03'0 0.1
2014-Apr-10 16:33N 30°38' E 122°03'0 0.1
2014-Apr-10 15:33N 30°38' E 122°03'0 0.0
2014-Apr-10 14:33N 30°38' E 122°03'0 0.0
2014-Apr-10 13:32N 30°38' E 122°03'0 0.0
2014-Apr-10 12:33N 30°38' E 122°03'0 0.0
2014-Apr-10 11:34N 30°38' E 122°03'0 0.1
2014-Apr-10 10:33N 30°38' E 122°03'0 0.1
2014-Apr-10 09:33N 30°38' E 122°03'0 0.0
2014-Apr-10 08:33N 30°38' E 122°03'0 0.0
2014-Apr-10 07:33N 30°38' E 122°03'0 0.0
2014-Apr-10 06:33N 30°38' E 122°03'0 0.0
2014-Apr-10 05:33N 30°38' E 122°03'0 0.0
2014-Apr-10 04:33N 30°38' E 122°03'0 0.0
2014-Apr-10 03:33N 30°38' E 122°03'0 0.0
2014-Apr-10 02:33N 30°38' E 122°03'6 6.0
2014-Apr-10 01:34N 30°35' E 122°09'1111.2
2014-Apr-10 00:33N 30°33' E 122°21'5 5.2
2014-Apr-09 23:32N 30°31' E 122°27'4 3.5
2014-Apr-09 22:28N 30°29' E 122°30'0 0.1
2014-Apr-09 21:31N 30°29' E 122°30'0 0.1
2014-Apr-09 20:28N 30°29' E 122°30'0 0.1
2014-Apr-09 17:28N 30°28' E 122°31'0 0.1
2014-Apr-09 12:22N 30°29' E 122°31'0 0.0
2014-Apr-08 15:33N 30°28' E 122°31'5 5.4
2014-Apr-08 14:33N 30°32' E 122°26'7 7.0
2014-Apr-08 13:33N 30°33' E 122°18'3 3.5
2014-Apr-08 12:34N 30°33' E 122°22'8 7.6
2014-Apr-08 11:29N 30°29' E 122°30'2 0.1
2014-Apr-07 08:25N 30°27' E 122°33'0 0.0
2014-Apr-07 07:26N 30°27' E 122°33'0 0.0
2014-Apr-07 04:08N 30°27' E 122°33'1 2.1
2014-Apr-07 03:33N 30°26' E 122°33'1110.1
2014-Apr-07 02:30N 30°16' E 122°37'1313.7
2014-Apr-07 01:33N 30°03' E 122°37'1716.7
2014-Apr-07 00:34N 29°48' E 122°30'1211.9
2014-Apr-06 23:34N 29°46' E 122°17'8 8.3
2014-Apr-06 22:34N 29°49' E 122°07'7 6.6
2014-Apr-06 21:33N 29°46' E 122°00'0 0.0
2014-Apr-06 20:33N 29°46' E 122°00'0 0.0
2014-Apr-06 19:33N 29°46' E 122°00'0 0.0
2014-Apr-06 18:34N 29°46' E 122°00'0 0.0
2014-Apr-06 17:33N 29°46' E 122°00'0 0.0
2014-Apr-06 16:33N 29°46' E 122°00'0 0.0
2014-Apr-06 15:34N 29°46' E 122°00'0 0.0
2014-Apr-06 14:34N 29°46' E 122°00'0 0.0
2014-Apr-06 13:33N 29°46' E 122°00'0 0.0
2014-Apr-06 12:33N 29°46' E 122°00'0 0.0
2014-Apr-06 11:34N 29°46' E 122°00'4 4.4
2014-Apr-06 10:34N 29°48' E 122°05'10 9.7
2014-Apr-06 09:33N 29°47' E 122°16'7 7.0
2014-Apr-06 08:33N 29°45' E 122°24'3 3.3
2014-Apr-06 07:33N 29°46' E 122°27'0 0.1
2014-Apr-06 06:34N 29°46' E 122°27'0 0.0
2014-Apr-06 05:33N 29°46' E 122°27'0 0.1
2014-Apr-06 04:34N 29°46' E 122°27'0 0.1
2014-Apr-06 03:34N 29°46' E 122°27'0 0.0
2014-Apr-06 02:33N 29°46' E 122°27'0 0.1
2014-Apr-06 01:33N 29°46' E 122°27'8 7.8
2014-Apr-06 00:34N 29°47' E 122°36'1211.5
2014-Apr-05 23:32N 29°51' E 122°48'38213.6
2014-Apr-04 19:31N 35°57' E 120°38'1515.4
2014-Apr-04 18:33N 36°01' E 120°20'6 6.3
2014-Apr-04 17:32N 36°01' E 120°12'0 0.0
2014-Apr-04 13:08N 36°01' E 120°12'0 0.0
2014-Apr-04 11:20N 36°01' E 120°12'0 0.0
2014-Apr-04 10:32N 36°01' E 120°12'0 0.0
2014-Apr-04 09:14N 36°01' E 120°12'1 0.8
2014-Apr-04 07:33N 36°01' E 120°14'1110.9
2014-Apr-04 06:33N 36°00' E 120°27'1414.2
2014-Apr-04 05:32N 35°58' E 120°45'14 0.4
2014-Apr-02 18:18N 35°52' E 121°01'  

Dump ship's entire track history

sailing weather and tide predictions

Nyk Constellation — V7NP4 — position and weather